sensor_id;sensor_type;location;lat;lon;timestamp;temperature;humidity
16491;DHT22;8356;51.214;3.270;2022-08-05T00:00:46;589.30;2432.00
16491;DHT22;8356;51.214;3.270;2022-08-05T00:03:12;589.30;2432.00
16491;DHT22;8356;51.214;3.270;2022-08-05T00:05:37;589.20;2432.00
16491;DHT22;8356;51.214;3.270;2022-08-05T00:08:03;589.20;2432.00
16491;DHT22;8356;51.214;3.270;2022-08-05T00:10:29;589.10;2432.00
16491;DHT22;8356;51.214;3.270;2022-08-05T00:12:55;589.10;2432.00
16491;DHT22;8356;51.214;3.270;2022-08-05T00:15:21;589.20;2432.00
16491;DHT22;8356;51.214;3.270;2022-08-05T00:17:46;589.20;2432.00
16491;DHT22;8356;51.214;3.270;2022-08-05T00:20:12;589.20;2432.00
16491;DHT22;8356;51.214;3.270;2022-08-05T00:22:37;589.20;2432.00
16491;DHT22;8356;51.214;3.270;2022-08-05T00:25:03;589.20;2432.00
16491;DHT22;8356;51.214;3.270;2022-08-05T00:27:29;589.20;2432.00
16491;DHT22;8356;51.214;3.270;2022-08-05T00:29:55;589.20;2432.00
16491;DHT22;8356;51.214;3.270;2022-08-05T00:32:21;589.20;2432.00
16491;DHT22;8356;51.214;3.270;2022-08-05T00:34:47;589.20;2432.00
16491;DHT22;8356;51.214;3.270;2022-08-05T00:37:12;589.20;2432.00
16491;DHT22;8356;51.214;3.270;2022-08-05T00:39:38;589.30;2432.00
16491;DHT22;8356;51.214;3.270;2022-08-05T00:42:07;589.30;2432.00
16491;DHT22;8356;51.214;3.270;2022-08-05T00:44:32;589.30;2432.00
16491;DHT22;8356;51.214;3.270;2022-08-05T00:46:58;589.20;2432.00
16491;DHT22;8356;51.214;3.270;2022-08-05T00:49:24;589.20;2432.00
16491;DHT22;8356;51.214;3.270;2022-08-05T00:51:49;589.00;2432.00
16491;DHT22;8356;51.214;3.270;2022-08-05T00:54:15;588.90;2432.00
16491;DHT22;8356;51.214;3.270;2022-08-05T00:56:40;588.80;2432.00
16491;DHT22;8356;51.214;3.270;2022-08-05T00:59:06;564.10;2432.00
16491;DHT22;8356;51.214;3.270;2022-08-05T01:01:32;564.00;2432.00
16491;DHT22;8356;51.214;3.270;2022-08-05T01:03:57;563.90;2432.00
16491;DHT22;8356;51.214;3.270;2022-08-05T01:06:23;564.10;2432.00
16491;DHT22;8356;51.214;3.270;2022-08-05T01:08:49;564.10;2432.00
16491;DHT22;8356;51.214;3.270;2022-08-05T01:11:20;564.10;2432.00
16491;DHT22;8356;51.214;3.270;2022-08-05T01:16:56;564.10;2432.00
16491;DHT22;8356;51.214;3.270;2022-08-05T01:30:14;564.10;2432.00
16491;DHT22;8356;51.214;3.270;2022-08-05T01:32:40;564.00;2432.00
16491;DHT22;8356;51.214;3.270;2022-08-05T01:35:16;564.00;2432.00
16491;DHT22;8356;51.214;3.270;2022-08-05T01:37:50;564.10;2432.00
16491;DHT22;8356;51.214;3.270;2022-08-05T01:40:17;564.10;2432.00
16491;DHT22;8356;51.214;3.270;2022-08-05T01:42:45;564.10;2432.00
16491;DHT22;8356;51.214;3.270;2022-08-05T01:45:12;563.90;2432.00
16491;DHT22;8356;51.214;3.270;2022-08-05T01:47:41;563.90;2432.00
16491;DHT22;8356;51.214;3.270;2022-08-05T01:50:11;563.90;2432.00
16491;DHT22;8356;51.214;3.270;2022-08-05T01:52:38;563.90;2432.00
16491;DHT22;8356;51.214;3.270;2022-08-05T01:55:08;563.90;2432.00
16491;DHT22;8356;51.214;3.270;2022-08-05T01:57:39;563.90;2432.00
16491;DHT22;8356;51.214;3.270;2022-08-05T02:00:07;563.90;2432.00
16491;DHT22;8356;51.214;3.270;2022-08-05T02:02:40;563.90;2432.00
16491;DHT22;8356;51.214;3.270;2022-08-05T02:05:11;563.80;2432.00
16491;DHT22;8356;51.214;3.270;2022-08-05T02:07:38;563.80;2432.00
16491;DHT22;8356;51.214;3.270;2022-08-05T02:10:04;563.70;2432.00
16491;DHT22;8356;51.214;3.270;2022-08-05T02:12:43;563.70;2432.00
16491;DHT22;8356;51.214;3.270;2022-08-05T02:17:51;563.60;2432.00
16491;DHT22;8356;51.214;3.270;2022-08-05T02:20:22;563.60;2432.00
16491;DHT22;8356;51.214;3.270;2022-08-05T02:22:57;563.60;2432.00
16491;DHT22;8356;51.214;3.270;2022-08-05T02:25:34;563.60;2432.00
16491;DHT22;8356;51.214;3.270;2022-08-05T02:28:02;563.70;2432.00
16491;DHT22;8356;51.214;3.270;2022-08-05T02:30:40;563.60;2432.00
16491;DHT22;8356;51.214;3.270;2022-08-05T02:33:07;563.50;2432.00
16491;DHT22;8356;51.214;3.270;2022-08-05T02:35:34;563.50;2432.00
16491;DHT22;8356;51.214;3.270;2022-08-05T02:38:01;563.40;2432.00
16491;DHT22;8356;51.214;3.270;2022-08-05T02:40:29;563.40;2432.00
16491;DHT22;8356;51.214;3.270;2022-08-05T02:42:56;538.50;2406.40
16491;DHT22;8356;51.214;3.270;2022-08-05T02:45:22;538.30;2406.40
16491;DHT22;8356;51.214;3.270;2022-08-05T02:47:51;538.20;2406.40
16491;DHT22;8356;51.214;3.270;2022-08-05T02:50:20;538.10;2406.40
16491;DHT22;8356;51.214;3.270;2022-08-05T02:52:47;537.90;2406.40
16491;DHT22;8356;51.214;3.270;2022-08-05T02:55:13;537.80;2406.40
16491;DHT22;8356;51.214;3.270;2022-08-05T02:57:40;537.90;2406.40
16491;DHT22;8356;51.214;3.270;2022-08-05T03:00:07;538.00;2406.40
16491;DHT22;8356;51.214;3.270;2022-08-05T03:02:36;537.80;2406.40
16491;DHT22;8356;51.214;3.270;2022-08-05T03:05:03;537.70;2406.40
16491;DHT22;8356;51.214;3.270;2022-08-05T03:07:32;537.70;2406.40
16491;DHT22;8356;51.214;3.270;2022-08-05T03:09:59;537.80;2406.40
16491;DHT22;8356;51.214;3.270;2022-08-05T03:12:31;537.80;2406.40
16491;DHT22;8356;51.214;3.270;2022-08-05T03:14:57;537.90;2406.40
16491;DHT22;8356;51.214;3.270;2022-08-05T03:17:22;538.00;2406.40
16491;DHT22;8356;51.214;3.270;2022-08-05T03:19:48;537.90;2406.40
16491;DHT22;8356;51.214;3.270;2022-08-05T03:22:14;538.00;2406.40
16491;DHT22;8356;51.214;3.270;2022-08-05T03:24:41;538.00;2406.40
16491;DHT22;8356;51.214;3.270;2022-08-05T03:27:07;537.90;2406.40
16491;DHT22;8356;51.214;3.270;2022-08-05T03:29:33;537.90;2406.40
16491;DHT22;8356;51.214;3.270;2022-08-05T03:31:59;512.90;2380.80
16491;DHT22;8356;51.214;3.270;2022-08-05T03:34:26;537.60;2406.40
16491;DHT22;8356;51.214;3.270;2022-08-05T03:36:52;512.90;2380.80
16491;DHT22;8356;51.214;3.270;2022-08-05T03:39:18;512.90;2380.80
16491;DHT22;8356;51.214;3.270;2022-08-05T03:41:44;512.80;2380.80
16491;DHT22;8356;51.214;3.270;2022-08-05T03:44:09;537.60;2406.40
16491;DHT22;8356;51.214;3.270;2022-08-05T03:46:35;537.80;2406.40
16491;DHT22;8356;51.214;3.270;2022-08-05T03:49:01;537.80;2406.40
16491;DHT22;8356;51.214;3.270;2022-08-05T03:51:29;537.80;2406.40
16491;DHT22;8356;51.214;3.270;2022-08-05T03:54:06;537.70;2406.40
16491;DHT22;8356;51.214;3.270;2022-08-05T03:56:39;512.80;2380.80
16491;DHT22;8356;51.214;3.270;2022-08-05T03:59:50;512.60;2380.80
16491;DHT22;8356;51.214;3.270;2022-08-05T04:01:57;512.50;2380.80
16491;DHT22;8356;51.214;3.270;2022-08-05T04:04:26;512.50;2380.80
16491;DHT22;8356;51.214;3.270;2022-08-05T04:06:52;512.50;2380.80
16491;DHT22;8356;51.214;3.270;2022-08-05T04:09:18;512.70;2380.80
16491;DHT22;8356;51.214;3.270;2022-08-05T04:11:44;512.70;2380.80
16491;DHT22;8356;51.214;3.270;2022-08-05T04:14:10;512.90;2380.80
16491;DHT22;8356;51.214;3.270;2022-08-05T04:16:37;512.90;2380.80
16491;DHT22;8356;51.214;3.270;2022-08-05T04:19:04;512.90;2380.80
16491;DHT22;8356;51.214;3.270;2022-08-05T04:21:29;512.90;2380.80
16491;DHT22;8356;51.214;3.270;2022-08-05T04:23:56;512.80;2380.80
16491;DHT22;8356;51.214;3.270;2022-08-05T04:26:24;512.70;2380.80
16491;DHT22;8356;51.214;3.270;2022-08-05T04:28:50;512.70;2380.80
16491;DHT22;8356;51.214;3.270;2022-08-05T04:31:16;512.80;2380.80
16491;DHT22;8356;51.214;3.270;2022-08-05T04:33:41;512.90;2380.80
16491;DHT22;8356;51.214;3.270;2022-08-05T04:36:07;512.90;2380.80
16491;DHT22;8356;51.214;3.270;2022-08-05T04:38:35;512.90;2380.80
16491;DHT22;8356;51.214;3.270;2022-08-05T04:41:01;512.90;2380.80
16491;DHT22;8356;51.214;3.270;2022-08-05T04:43:26;512.90;2380.80
16491;DHT22;8356;51.214;3.270;2022-08-05T04:45:52;512.80;2380.80
16491;DHT22;8356;51.214;3.270;2022-08-05T04:48:18;512.80;2380.80
16491;DHT22;8356;51.214;3.270;2022-08-05T04:50:46;512.80;2380.80
16491;DHT22;8356;51.214;3.270;2022-08-05T04:53:13;512.70;2380.80
16491;DHT22;8356;51.214;3.270;2022-08-05T04:55:40;512.60;2380.80
16491;DHT22;8356;51.214;3.270;2022-08-05T04:58:07;512.60;2380.80
16491;DHT22;8356;51.214;3.270;2022-08-05T05:00:35;512.60;2380.80
16491;DHT22;8356;51.214;3.270;2022-08-05T05:03:01;512.70;2380.80
16491;DHT22;8356;51.214;3.270;2022-08-05T05:05:27;512.40;2380.80
16491;DHT22;8356;51.214;3.270;2022-08-05T05:08:13;512.40;2380.80
16491;DHT22;8356;51.214;3.270;2022-08-05T05:10:44;512.30;2380.80
16491;DHT22;8356;51.214;3.270;2022-08-05T05:13:14;512.50;2380.80
16491;DHT22;8356;51.214;3.270;2022-08-05T05:15:42;512.70;2380.80
16491;DHT22;8356;51.214;3.270;2022-08-05T05:18:08;512.80;2380.80
16491;DHT22;8356;51.214;3.270;2022-08-05T05:20:34;512.80;2380.80
16491;DHT22;8356;51.214;3.270;2022-08-05T05:23:00;512.90;2380.80
16491;DHT22;8356;51.214;3.270;2022-08-05T05:25:28;537.70;2406.40
16491;DHT22;8356;51.214;3.270;2022-08-05T05:27:54;538.30;2406.40
16491;DHT22;8356;51.214;3.270;2022-08-05T05:30:20;538.10;2406.40
16491;DHT22;8356;51.214;3.270;2022-08-05T05:32:46;538.10;2406.40
16491;DHT22;8356;51.214;3.270;2022-08-05T05:35:12;537.90;2406.40
16491;DHT22;8356;51.214;3.270;2022-08-05T05:37:52;537.90;2406.40
16491;DHT22;8356;51.214;3.270;2022-08-05T05:40:20;538.10;2406.40
16491;DHT22;8356;51.214;3.270;2022-08-05T05:42:47;538.10;2406.40
16491;DHT22;8356;51.214;3.270;2022-08-05T05:45:13;538.10;2406.40
16491;DHT22;8356;51.214;3.270;2022-08-05T05:47:39;537.80;2406.40
16491;DHT22;8356;51.214;3.270;2022-08-05T05:50:13;538.10;2406.40
16491;DHT22;8356;51.214;3.270;2022-08-05T05:52:39;538.00;2406.40
16491;DHT22;8356;51.214;3.270;2022-08-05T05:55:10;538.10;2406.40
16491;DHT22;8356;51.214;3.270;2022-08-05T05:57:37;538.30;2406.40
16491;DHT22;8356;51.214;3.270;2022-08-05T06:00:05;538.40;2406.40
16491;DHT22;8356;51.214;3.270;2022-08-05T06:02:31;538.50;2406.40
16491;DHT22;8356;51.214;3.270;2022-08-05T06:04:56;563.20;2432.00
16491;DHT22;8356;51.214;3.270;2022-08-05T06:07:22;563.30;2432.00
16491;DHT22;8356;51.214;3.270;2022-08-05T06:09:48;563.40;2432.00
16491;DHT22;8356;51.214;3.270;2022-08-05T06:12:13;563.40;2432.00
16491;DHT22;8356;51.214;3.270;2022-08-05T06:14:39;563.20;2432.00
16491;DHT22;8356;51.214;3.270;2022-08-05T06:17:06;563.20;2432.00
16491;DHT22;8356;51.214;3.270;2022-08-05T06:19:33;563.30;2432.00
16491;DHT22;8356;51.214;3.270;2022-08-05T06:21:59;563.40;2432.00
16491;DHT22;8356;51.214;3.270;2022-08-05T06:24:24;563.40;2432.00
16491;DHT22;8356;51.214;3.270;2022-08-05T06:26:50;563.40;2432.00
16491;DHT22;8356;51.214;3.270;2022-08-05T06:29:15;563.40;2432.00
16491;DHT22;8356;51.214;3.270;2022-08-05T06:31:41;563.50;2432.00
16491;DHT22;8356;51.214;3.270;2022-08-05T06:34:07;563.40;2432.00
16491;DHT22;8356;51.214;3.270;2022-08-05T06:36:32;563.50;2432.00
16491;DHT22;8356;51.214;3.270;2022-08-05T06:38:58;563.60;2432.00
16491;DHT22;8356;51.214;3.270;2022-08-05T06:41:23;563.60;2432.00
16491;DHT22;8356;51.214;3.270;2022-08-05T06:43:49;563.70;2432.00
16491;DHT22;8356;51.214;3.270;2022-08-05T06:46:15;563.70;2432.00
16491;DHT22;8356;51.214;3.270;2022-08-05T06:48:40;563.80;2432.00
16491;DHT22;8356;51.214;3.270;2022-08-05T06:51:06;563.90;2432.00
16491;DHT22;8356;51.214;3.270;2022-08-05T06:53:32;564.00;2432.00
16491;DHT22;8356;51.214;3.270;2022-08-05T06:56:00;564.00;2432.00
16491;DHT22;8356;51.214;3.270;2022-08-05T06:58:28;564.10;2432.00
16491;DHT22;8356;51.214;3.270;2022-08-05T07:00:54;564.10;2432.00
16491;DHT22;8356;51.214;3.270;2022-08-05T07:03:22;564.10;2432.00
16491;DHT22;8356;51.214;3.270;2022-08-05T07:05:47;564.10;2432.00
16491;DHT22;8356;51.214;3.270;2022-08-05T07:08:13;588.90;2432.00
16491;DHT22;8356;51.214;3.270;2022-08-05T07:10:39;588.90;2432.00
16491;DHT22;8356;51.214;3.270;2022-08-05T07:13:05;588.90;2432.00
16491;DHT22;8356;51.214;3.270;2022-08-05T07:15:49;588.90;2432.00
16491;DHT22;8356;51.214;3.270;2022-08-05T07:18:33;588.90;2432.00
16491;DHT22;8356;51.214;3.270;2022-08-05T07:20:58;588.90;2432.00
16491;DHT22;8356;51.214;3.270;2022-08-05T07:23:24;588.80;2432.00
16491;DHT22;8356;51.214;3.270;2022-08-05T07:25:50;564.10;2432.00
16491;DHT22;8356;51.214;3.270;2022-08-05T07:28:15;588.80;2432.00
16491;DHT22;8356;51.214;3.270;2022-08-05T07:30:41;589.10;2432.00
16491;DHT22;8356;51.214;3.270;2022-08-05T07:33:08;589.10;2432.00
16491;DHT22;8356;51.214;3.270;2022-08-05T07:35:34;589.00;2432.00
16491;DHT22;8356;51.214;3.270;2022-08-05T07:38:00;589.00;2432.00
16491;DHT22;8356;51.214;3.270;2022-08-05T07:40:26;589.20;2432.00
16491;DHT22;8356;51.214;3.270;2022-08-05T07:42:54;589.60;2432.00
16491;DHT22;8356;51.214;3.270;2022-08-05T07:45:20;589.60;2432.00
16491;DHT22;8356;51.214;3.270;2022-08-05T07:47:45;589.50;2432.00
16491;DHT22;8356;51.214;3.270;2022-08-05T07:50:11;589.40;2432.00
16491;DHT22;8356;51.214;3.270;2022-08-05T07:52:38;589.30;2432.00
16491;DHT22;8356;51.214;3.270;2022-08-05T07:55:05;589.20;2432.00
16491;DHT22;8356;51.214;3.270;2022-08-05T07:57:30;589.00;2432.00
16491;DHT22;8356;51.214;3.270;2022-08-05T07:59:56;589.00;2432.00
16491;DHT22;8356;51.214;3.270;2022-08-05T08:02:25;588.90;2432.00
16491;DHT22;8356;51.214;3.270;2022-08-05T08:04:52;588.80;2432.00
16491;DHT22;8356;51.214;3.270;2022-08-05T08:07:18;564.10;2432.00
16491;DHT22;8356;51.214;3.270;2022-08-05T08:09:45;588.80;2432.00
16491;DHT22;8356;51.214;3.270;2022-08-05T08:12:11;588.90;2432.00
16491;DHT22;8356;51.214;3.270;2022-08-05T08:14:40;588.90;2432.00
16491;DHT22;8356;51.214;3.270;2022-08-05T08:17:06;563.50;2432.00
16491;DHT22;8356;51.214;3.270;2022-08-05T08:19:36;563.90;2432.00
16491;DHT22;8356;51.214;3.270;2022-08-05T08:22:02;563.70;2432.00
16491;DHT22;8356;51.214;3.270;2022-08-05T08:24:29;563.90;2432.00
16491;DHT22;8356;51.214;3.270;2022-08-05T08:26:55;588.80;2432.00
16491;DHT22;8356;51.214;3.270;2022-08-05T08:29:20;589.20;2432.00
16491;DHT22;8356;51.214;3.270;2022-08-05T08:31:46;589.50;2432.00
16491;DHT22;8356;51.214;3.270;2022-08-05T08:34:12;589.60;2432.00
16491;DHT22;8356;51.214;3.270;2022-08-05T08:36:37;589.70;2432.00
16491;DHT22;8356;51.214;3.270;2022-08-05T08:39:03;589.60;2432.00
16491;DHT22;8356;51.214;3.270;2022-08-05T08:41:32;589.60;2432.00
16491;DHT22;8356;51.214;3.270;2022-08-05T08:43:59;589.40;2432.00
16491;DHT22;8356;51.214;3.270;2022-08-05T08:46:28;589.40;2432.00
16491;DHT22;8356;51.214;3.270;2022-08-05T08:48:56;589.40;2432.00
16491;DHT22;8356;51.214;3.270;2022-08-05T08:51:23;589.50;2432.00
16491;DHT22;8356;51.214;3.270;2022-08-05T08:53:49;589.50;2432.00
16491;DHT22;8356;51.214;3.270;2022-08-05T08:56:15;589.70;2432.00
16491;DHT22;8356;51.214;3.270;2022-08-05T08:58:41;589.50;2432.00
16491;DHT22;8356;51.214;3.270;2022-08-05T09:01:07;589.60;2432.00
16491;DHT22;8356;51.214;3.270;2022-08-05T09:03:35;614.60;2432.00
16491;DHT22;8356;51.214;3.270;2022-08-05T09:06:00;614.80;2432.00
16491;DHT22;8356;51.214;3.270;2022-08-05T09:08:26;614.80;2432.00
16491;DHT22;8356;51.214;3.270;2022-08-05T09:10:52;615.00;2432.00
16491;DHT22;8356;51.214;3.270;2022-08-05T09:13:18;615.30;2432.00
16491;DHT22;8356;51.214;3.270;2022-08-05T09:15:45;640.40;2432.00
16491;DHT22;8356;51.214;3.270;2022-08-05T09:18:11;640.50;2432.00
16491;DHT22;8356;51.214;3.270;2022-08-05T09:20:37;615.30;2432.00
16491;DHT22;8356;51.214;3.270;2022-08-05T09:23:04;615.10;2432.00
16491;DHT22;8356;51.214;3.270;2022-08-05T09:25:30;614.60;2432.00
16491;DHT22;8356;51.214;3.270;2022-08-05T09:28:04;589.70;2432.00
16491;DHT22;8356;51.214;3.270;2022-08-05T09:30:30;589.40;2432.00
16491;DHT22;8356;51.214;3.270;2022-08-05T09:33:00;589.30;2432.00
16491;DHT22;8356;51.214;3.270;2022-08-05T09:35:26;589.60;2432.00
16491;DHT22;8356;51.214;3.270;2022-08-05T09:37:52;589.60;2432.00
16491;DHT22;8356;51.214;3.270;2022-08-05T09:40:39;589.60;2432.00
16491;DHT22;8356;51.214;3.270;2022-08-05T09:43:07;589.60;2432.00
16491;DHT22;8356;51.214;3.270;2022-08-05T09:45:43;614.40;2432.00
16491;DHT22;8356;51.214;3.270;2022-08-05T09:50:51;614.40;2432.00
16491;DHT22;8356;51.214;3.270;2022-08-05T09:53:17;614.80;2432.00
16491;DHT22;8356;51.214;3.270;2022-08-05T09:55:43;614.90;2432.00
16491;DHT22;8356;51.214;3.270;2022-08-05T09:58:13;615.20;2432.00
16491;DHT22;8356;51.214;3.270;2022-08-05T10:00:50;615.20;2432.00
16491;DHT22;8356;51.214;3.270;2022-08-05T10:03:16;615.30;2432.00
16491;DHT22;8356;51.214;3.270;2022-08-05T10:05:42;640.20;2432.00
16491;DHT22;8356;51.214;3.270;2022-08-05T10:08:08;640.40;2432.00
16491;DHT22;8356;51.214;3.270;2022-08-05T10:13:09;640.30;2432.00
16491;DHT22;8356;51.214;3.270;2022-08-05T10:15:39;640.20;2432.00
16491;DHT22;8356;51.214;3.270;2022-08-05T10:18:08;640.20;2432.00
16491;DHT22;8356;51.214;3.270;2022-08-05T10:20:42;640.20;2432.00
16491;DHT22;8356;51.214;3.270;2022-08-05T10:23:13;640.40;2432.00
16491;DHT22;8356;51.214;3.270;2022-08-05T10:25:39;640.90;2432.00
16491;DHT22;8356;51.214;3.270;2022-08-05T10:28:06;640.70;2432.00
16491;DHT22;8356;51.214;3.270;2022-08-05T10:30:33;640.50;2432.00
16491;DHT22;8356;51.214;3.270;2022-08-05T10:32:59;640.70;2432.00
16491;DHT22;8356;51.214;3.270;2022-08-05T10:35:25;640.70;2432.00
16491;DHT22;8356;51.214;3.270;2022-08-05T10:37:51;640.50;2432.00
16491;DHT22;8356;51.214;3.270;2022-08-05T10:42:46;640.50;2432.00
16491;DHT22;8356;51.214;3.270;2022-08-05T10:45:15;640.70;2432.00
16491;DHT22;8356;51.214;3.270;2022-08-05T10:47:41;640.80;2432.00
16491;DHT22;8356;51.214;3.270;2022-08-05T10:50:10;640.80;2432.00
16491;DHT22;8356;51.214;3.270;2022-08-05T10:52:45;640.90;2432.00
16491;DHT22;8356;51.214;3.270;2022-08-05T10:55:17;640.70;2432.00
16491;DHT22;8356;51.214;3.270;2022-08-05T10:57:44;640.00;2432.00
16491;DHT22;8356;51.214;3.270;2022-08-05T11:00:14;666.20;2432.00
16491;DHT22;8356;51.214;3.270;2022-08-05T11:05:28;666.30;2432.00
16491;DHT22;8356;51.214;3.270;2022-08-05T11:08:05;666.20;2432.00
16491;DHT22;8356;51.214;3.270;2022-08-05T11:10:32;665.60;2432.00
16491;DHT22;8356;51.214;3.270;2022-08-05T11:12:59;640.90;2432.00
16491;DHT22;8356;51.214;3.270;2022-08-05T11:15:30;640.40;2432.00
16491;DHT22;8356;51.214;3.270;2022-08-05T11:18:07;640.20;2432.00
16491;DHT22;8356;51.214;3.270;2022-08-05T11:20:45;640.00;2432.00
16491;DHT22;8356;51.214;3.270;2022-08-05T11:26:14;640.70;2432.00
16491;DHT22;8356;51.214;3.270;2022-08-05T11:28:52;615.20;2432.00
16491;DHT22;8356;51.214;3.270;2022-08-05T11:31:28;615.30;2432.00
16491;DHT22;8356;51.214;3.270;2022-08-05T11:34:05;640.20;2432.00
16491;DHT22;8356;51.214;3.270;2022-08-05T11:39:09;640.50;2432.00
16491;DHT22;8356;51.214;3.270;2022-08-05T11:41:36;640.40;2432.00
16491;DHT22;8356;51.214;3.270;2022-08-05T11:44:05;640.00;2432.00
16491;DHT22;8356;51.214;3.270;2022-08-05T11:46:38;640.10;2432.00
16491;DHT22;8356;51.214;3.270;2022-08-05T11:49:07;640.10;2432.00
16491;DHT22;8356;51.214;3.270;2022-08-05T11:51:33;615.30;2432.00
16491;DHT22;8356;51.214;3.270;2022-08-05T11:53:59;615.10;2432.00
16491;DHT22;8356;51.214;3.270;2022-08-05T11:56:59;614.90;2432.00
16491;DHT22;8356;51.214;3.270;2022-08-05T11:59:28;614.70;2432.00
16491;DHT22;8356;51.214;3.270;2022-08-05T12:04:27;615.10;2432.00
16491;DHT22;8356;51.214;3.270;2022-08-05T12:06:54;640.10;2432.00
16491;DHT22;8356;51.214;3.270;2022-08-05T12:09:24;640.00;2432.00
16491;DHT22;8356;51.214;3.270;2022-08-05T12:11:50;640.10;2432.00
16491;DHT22;8356;51.214;3.270;2022-08-05T12:14:16;640.00;2432.00
16491;DHT22;8356;51.214;3.270;2022-08-05T12:16:43;614.90;2432.00
16491;DHT22;8356;51.214;3.270;2022-08-05T12:19:12;614.70;2432.00
16491;DHT22;8356;51.214;3.270;2022-08-05T12:21:48;614.40;2432.00
16491;DHT22;8356;51.214;3.270;2022-08-05T12:24:15;589.60;2432.00
16491;DHT22;8356;51.214;3.270;2022-08-05T12:26:48;614.60;2432.00
16491;DHT22;8356;51.214;3.270;2022-08-05T12:29:19;614.80;2432.00
16491;DHT22;8356;51.214;3.270;2022-08-05T12:31:48;614.90;2432.00
16491;DHT22;8356;51.214;3.270;2022-08-05T12:34:15;615.20;2432.00
16491;DHT22;8356;51.214;3.270;2022-08-05T12:36:42;640.20;2432.00
16491;DHT22;8356;51.214;3.270;2022-08-05T12:39:09;640.20;2432.00
16491;DHT22;8356;51.214;3.270;2022-08-05T12:41:37;640.20;2432.00
16491;DHT22;8356;51.214;3.270;2022-08-05T12:44:05;640.60;2432.00
16491;DHT22;8356;51.214;3.270;2022-08-05T12:46:33;640.80;2432.00
16491;DHT22;8356;51.214;3.270;2022-08-05T12:49:12;665.80;2432.00
16491;DHT22;8356;51.214;3.270;2022-08-05T12:51:50;665.60;2432.00
16491;DHT22;8356;51.214;3.270;2022-08-05T12:54:27;640.60;2432.00
16491;DHT22;8356;51.214;3.270;2022-08-05T12:57:04;640.30;2432.00
16491;DHT22;8356;51.214;3.270;2022-08-05T12:59:51;640.90;2432.00
16491;DHT22;8356;51.214;3.270;2022-08-05T13:02:26;640.90;2432.00
16491;DHT22;8356;51.214;3.270;2022-08-05T13:04:53;665.60;2432.00
16491;DHT22;8356;51.214;3.270;2022-08-05T13:07:22;665.90;2432.00
16491;DHT22;8356;51.214;3.270;2022-08-05T13:09:53;665.80;2432.00
16491;DHT22;8356;51.214;3.270;2022-08-05T13:12:21;665.90;2432.00
16491;DHT22;8356;51.214;3.270;2022-08-05T13:14:49;665.80;2432.00
16491;DHT22;8356;51.214;3.270;2022-08-05T13:17:21;640.60;2432.00
16491;DHT22;8356;51.214;3.270;2022-08-05T13:22:52;640.10;2432.00
16491;DHT22;8356;51.214;3.270;2022-08-05T13:25:19;615.20;2432.00
16491;DHT22;8356;51.214;3.270;2022-08-05T13:27:54;615.20;2432.00
16491;DHT22;8356;51.214;3.270;2022-08-05T13:30:23;615.30;2432.00
16491;DHT22;8356;51.214;3.270;2022-08-05T13:32:50;640.10;2432.00
16491;DHT22;8356;51.214;3.270;2022-08-05T13:35:18;640.40;2432.00
16491;DHT22;8356;51.214;3.270;2022-08-05T13:37:44;640.20;2432.00
16491;DHT22;8356;51.214;3.270;2022-08-05T13:40:11;640.10;2432.00
16491;DHT22;8356;51.214;3.270;2022-08-05T13:42:37;640.20;2432.00
16491;DHT22;8356;51.214;3.270;2022-08-05T13:45:06;640.20;2432.00
16491;DHT22;8356;51.214;3.270;2022-08-05T13:47:33;640.20;2432.00
16491;DHT22;8356;51.214;3.270;2022-08-05T13:50:05;640.30;2432.00
16491;DHT22;8356;51.214;3.270;2022-08-05T13:52:31;640.40;2432.00
16491;DHT22;8356;51.214;3.270;2022-08-05T13:54:57;640.70;2432.00
16491;DHT22;8356;51.214;3.270;2022-08-05T13:57:23;640.70;2432.00
16491;DHT22;8356;51.214;3.270;2022-08-05T13:59:49;640.70;2432.00
16491;DHT22;8356;51.214;3.270;2022-08-05T14:02:15;640.80;2432.00
16491;DHT22;8356;51.214;3.270;2022-08-05T14:04:44;640.70;2432.00
16491;DHT22;8356;51.214;3.270;2022-08-05T14:07:37;640.20;2432.00
16491;DHT22;8356;51.214;3.270;2022-08-05T14:10:12;640.10;2432.00
16491;DHT22;8356;51.214;3.270;2022-08-05T14:12:38;640.30;2432.00
16491;DHT22;8356;51.214;3.270;2022-08-05T14:15:05;615.30;2432.00
16491;DHT22;8356;51.214;3.270;2022-08-05T14:17:31;640.10;2432.00
16491;DHT22;8356;51.214;3.270;2022-08-05T14:19:56;640.30;2432.00
16491;DHT22;8356;51.214;3.270;2022-08-05T14:22:22;640.40;2432.00
16491;DHT22;8356;51.214;3.270;2022-08-05T14:24:48;640.50;2432.00
16491;DHT22;8356;51.214;3.270;2022-08-05T14:27:13;640.40;2432.00
16491;DHT22;8356;51.214;3.270;2022-08-05T14:29:39;640.40;2432.00
16491;DHT22;8356;51.214;3.270;2022-08-05T14:32:05;615.30;2432.00
16491;DHT22;8356;51.214;3.270;2022-08-05T14:34:32;615.10;2432.00
16491;DHT22;8356;51.214;3.270;2022-08-05T14:36:58;614.70;2432.00
16491;DHT22;8356;51.214;3.270;2022-08-05T14:39:23;615.00;2432.00
16491;DHT22;8356;51.214;3.270;2022-08-05T14:41:50;614.90;2432.00
16491;DHT22;8356;51.214;3.270;2022-08-05T14:44:16;614.90;2432.00
16491;DHT22;8356;51.214;3.270;2022-08-05T14:46:42;614.90;2432.00
16491;DHT22;8356;51.214;3.270;2022-08-05T14:49:08;615.00;2432.00
16491;DHT22;8356;51.214;3.270;2022-08-05T14:51:35;614.60;2432.00
16491;DHT22;8356;51.214;3.270;2022-08-05T14:54:01;589.40;2432.00
16491;DHT22;8356;51.214;3.270;2022-08-05T14:56:26;589.40;2432.00
16491;DHT22;8356;51.214;3.270;2022-08-05T14:58:52;614.50;2432.00
16491;DHT22;8356;51.214;3.270;2022-08-05T15:01:18;614.60;2432.00
16491;DHT22;8356;51.214;3.270;2022-08-05T15:03:44;614.50;2432.00
16491;DHT22;8356;51.214;3.270;2022-08-05T15:06:10;614.60;2432.00
16491;DHT22;8356;51.214;3.270;2022-08-05T15:08:36;614.60;2432.00
16491;DHT22;8356;51.214;3.270;2022-08-05T15:11:01;614.40;2432.00
16491;DHT22;8356;51.214;3.270;2022-08-05T15:13:27;589.40;2432.00
16491;DHT22;8356;51.214;3.270;2022-08-05T15:15:53;589.40;2432.00
16491;DHT22;8356;51.214;3.270;2022-08-05T15:18:19;589.60;2432.00
16491;DHT22;8356;51.214;3.270;2022-08-05T15:20:45;589.40;2432.00
16491;DHT22;8356;51.214;3.270;2022-08-05T15:23:11;589.10;2432.00
16491;DHT22;8356;51.214;3.270;2022-08-05T15:25:38;589.00;2432.00
16491;DHT22;8356;51.214;3.270;2022-08-05T15:28:06;589.00;2432.00
16491;DHT22;8356;51.214;3.270;2022-08-05T15:30:33;589.10;2432.00
16491;DHT22;8356;51.214;3.270;2022-08-05T15:33:01;589.20;2432.00
16491;DHT22;8356;51.214;3.270;2022-08-05T15:35:27;614.90;2432.00
16491;DHT22;8356;51.214;3.270;2022-08-05T15:37:53;589.40;2432.00
16491;DHT22;8356;51.214;3.270;2022-08-05T15:40:20;589.20;2432.00
16491;DHT22;8356;51.214;3.270;2022-08-05T15:42:45;614.60;2432.00
16491;DHT22;8356;51.214;3.270;2022-08-05T15:45:12;589.70;2432.00